Airfield :
LOGIN :

Register | Disclaimer

   EN    FR    IT 

 










Legend :    VFR   Marginal VFR   IFR   Intensive IFR   Very Intensive IFR
Visi :
Ceiling :
>= 8 km
>= 3000ft
5 to 8 km
1000 to 3000 ft
1500m to 5 km
500 to 1000 ft
800 to 1500m
200 to 500 ft
< 800m
< 200 ft
Symbols :   Thunderstorms  Fog  Heavy snow  Heavy precipitations  Wind > 20 kt
SIGMETs :     Misc.  Thunderstorms  Icing  Turbulence  Mountain Waves  Volcanic Ashes







- Airport Elevation : 659 ft
- IATA code : LGG


EBLG - Liège

CURRENT METAR :
  • 222120Z 10005KT 050V120 CAVOK 06/01 Q1013 NOSIG

EXPIRED METARs :
  • 222050Z VRB04KT CAVOK 07/01 Q1013 NOSIG
  • 222020Z 11005KT CAVOK 07/01 Q1013 NOSIG
  • 221950Z 12005KT CAVOK 07/01 Q1013 NOSIG
  • 221920Z 14006KT CAVOK 08/01 Q1013 NOSIG
  • 221850Z 15006KT 120V180 CAVOK 08/01 Q1013 NOSIG

TAF TAF EBLG
Valid from the 22 at 18:00 until the 24 at 00:00 UTC


221710Z 2218/2324 15010KT 9999 FEW045
BECMG 2300/2302 06007KT
PROB30
TEMPO 2303/2308 4500 BR
No reported NOTAMs for that airfield.



MET'MAP, your aeronautical weather chart ! - Copyright ORBIFLY December 2007 - Disclaimer

ORBIFLY MET'MAP TEAM :

Programming & Development : Alexandra Zaïnal
Concept & Development : Baudouin d'Aumeries
Co-Development & Prog : Marc-Olivier Méhu
Technical & hardware support : Manuel Goepfert

Contact : metmap@orbifly.com




SOURCES & CREDITS :

   NOAA